Main page
METAR-TAF:

METAR-TAF

Airports :

Valencia Airport

Valencia, Spain

latitude: 39-30N, longitude: 000-28W, elevation: 69 m

Current weather observation

The report was made 19 minutes ago, at 06:30 UTC
Wind 18 kt from the West
Temperature 35°C
Humidity 23%
Pressure 1012 hPa
Visibility 10 km or more
Few clouds at a height of 5000 ft, Towering cumulus.

METAR: LEVC 130630Z 28018KT 9999 FEW050TCU 35/11 Q1012 NOSIG

Time: 08:49 (06:49 UTC)

Forecast

The report was made 1 hour and 49 minutes ago, at 05:00 UTC
Forecast valid from 13 at 06 UTC to 14 at 06 UTC
Wind 3 kt from variable directions
Visibility 10 km or more
Few clouds at a height of 4000 ft
Probability 40% :
Temporary
from 13 at 11 UTC to 13 at 19 UTC
Wind 15 kt from the North/Northeast with gusts up to 40 kt
Visibility: 3000 m
Few clouds at a height of 5000 ft, Cumulonimbus.
thunderstorm, rain

TAF: LEVC 130500Z 1306/1406 VRB03KT 9999 FEW040 TX42/1315Z TN28/1306Z PROB40 TEMPO 1311/1319 03015G40KT 3000 TSRA FEW050CB

Weather observations and forecasts of more than 4000 airports (METAR and TAF reports).

The available stations are represented by yellow and red dots on the map.

Hover mouse over dot to see the name of the station.

Then click to see weather observations and forecasts.

To change the map : click on the green buttons with a black cross to zoom in, on the green button with a dash to zoom out, or on the green arrows for adjacent maps.


METAR-TAF: